Time;durP1;ratioP1;P1;durP2;ratioP2;P2;SDS_P1;SDS_P2;PMS_P1;PMS_P2;Temp;Humidity;BMP_temperature;BMP_pressure;BME280_temperature;BME280_humidity;BME280_pressure;Samples;Min_cycle;Max_cycle;Signal;HPM_P1;HPM_P2
2022/02/19 00:01:50;;;;;;;2.50;1.95;;;24.10;39.50;;;;;;6110161;28;80636;-64
2022/02/19 00:04:51;;;;;;;4.60;2.33;;;24.10;39.50;;;;;;6113640;28;79999;-64
2022/02/19 00:07:51;;;;;;;3.75;1.90;;;24.10;39.30;;;;;;6106728;28;81554;-63
2022/02/19 00:10:52;;;;;;;3.25;1.95;;;24.10;39.40;;;;;;6115384;28;80357;-63
2022/02/19 00:13:53;;;;;;;4.38;1.80;;;24.00;39.40;;;;;;6100719;28;83124;-63
2022/02/19 00:16:53;;;;;;;3.72;1.90;;;24.00;39.30;;;;;;6108237;28;81987;-63
2022/02/19 00:19:54;;;;;;;3.88;2.17;;;24.00;39.60;;;;;;6108091;28;81760;-64
2022/02/19 00:22:54;;;;;;;2.40;1.90;;;24.00;39.70;;;;;;6104260;28;83091;-63
2022/02/19 00:25:55;;;;;;;4.65;2.05;;;24.10;39.50;;;;;;6103883;28;81657;-63
2022/02/19 00:28:56;;;;;;;2.20;2.00;;;24.10;39.60;;;;;;6102213;28;80422;-63
2022/02/19 00:31:57;;;;;;;2.88;1.85;;;24.10;39.70;;;;;;6129424;28;81297;-63
2022/02/19 00:34:58;;;;;;;1.77;1.48;;;24.10;39.60;;;;;;6112575;28;80344;-63
2022/02/19 00:37:58;;;;;;;4.22;1.77;;;24.00;39.40;;;;;;6109581;28;80089;-62
2022/02/19 00:40:59;;;;;;;2.95;2.15;;;24.00;39.60;;;;;;6115090;28;81040;-63
2022/02/19 00:44:02;;;;;;;3.10;1.75;;;24.00;39.60;;;;;;6122253;28;82868;-63
2022/02/19 00:47:02;;;;;;;3.05;1.83;;;24.00;39.50;;;;;;6107953;28;80926;-63
2022/02/19 00:50:03;;;;;;;2.65;1.70;;;24.00;39.40;;;;;;6120527;28;80675;-63
2022/02/19 00:53:03;;;;;;;2.20;1.75;;;24.00;39.50;;;;;;6111760;28;80770;-64
2022/02/19 00:56:04;;;;;;;2.10;1.58;;;24.10;39.50;;;;;;6104035;28;80559;-63
2022/02/19 00:59:05;;;;;;;3.10;1.95;;;24.10;39.50;;;;;;6123828;28;82336;-64
2022/02/19 01:02:05;;;;;;;3.05;1.92;;;24.00;39.40;;;;;;6107166;28;83344;-63
2022/02/19 01:05:11;;;;;;;4.57;2.00;;;24.00;39.80;;;;;;6108517;28;81968;-63
2022/02/19 01:08:11;;;;;;;6.97;2.28;;;24.10;39.60;;;;;;6098737;28;82566;-63
2022/02/19 01:11:12;;;;;;;2.67;1.70;;;24.10;39.70;;;;;;6124684;28;81593;-63
2022/02/19 01:14:12;;;;;;;8.18;1.90;;;24.10;39.70;;;;;;6110384;28;82892;-63
2022/02/19 01:17:13;;;;;;;5.35;1.73;;;24.10;39.60;;;;;;6117981;28;81514;-63
2022/02/19 01:20:13;;;;;;;2.17;1.42;;;24.10;39.60;;;;;;6128563;28;82977;-63
2022/02/19 01:23:14;;;;;;;3.97;1.52;;;24.10;39.80;;;;;;6117225;28;82795;-63
2022/02/19 01:26:15;;;;;;;4.55;1.50;;;24.10;39.90;;;;;;6123723;28;80603;-63
2022/02/19 01:29:20;;;;;;;2.53;1.90;;;24.10;39.70;;;;;;6129326;28;83776;-63
2022/02/19 01:32:21;;;;;;;2.17;1.50;;;24.00;39.70;;;;;;6110758;28;83195;-63
2022/02/19 01:35:21;;;;;;;1.70;1.60;;;24.10;40.50;;;;;;6109367;28;85936;-63
2022/02/19 01:38:24;;;;;;;5.60;1.60;;;24.10;40.20;;;;;;6118906;28;83245;-63
2022/02/19 01:41:25;;;;;;;2.47;1.50;;;24.00;40.40;;;;;;6124615;28;82471;-63
2022/02/19 01:44:26;;;;;;;1.55;1.30;;;24.10;40.80;;;;;;6094507;28;82535;-63
2022/02/19 01:47:28;;;;;;;2.63;1.50;;;24.10;40.60;;;;;;6109300;28;83640;-63
2022/02/19 01:50:29;;;;;;;4.60;1.52;;;24.10;40.60;;;;;;6107434;28;80888;-63
2022/02/19 01:53:29;;;;;;;2.33;1.52;;;24.00;40.40;;;;;;6106832;28;81071;-63
2022/02/19 01:56:36;;;;;;;3.03;1.30;;;24.10;40.60;;;;;;6108621;28;83451;-63
2022/02/19 01:59:44;;;;;;;3.88;1.60;;;24.10;40.70;;;;;;6118485;28;83337;-64
2022/02/19 02:03:01;;;;;;;1.52;1.38;;;24.00;40.60;;;;;;6122313;28;83283;-63
2022/02/19 02:06:04;;;;;;;1.40;1.30;;;24.00;40.70;;;;;;6126451;28;80604;-63
2022/02/19 02:09:05;;;;;;;1.50;1.40;;;24.00;40.70;;;;;;6125608;28;80878;-63
2022/02/19 02:12:10;;;;;;;1.40;1.30;;;24.00;40.70;;;;;;6109890;28;87558;-63
2022/02/19 02:15:22;;;;;;;1.48;1.30;;;24.00;40.70;;;;;;6124315;28;82583;-64
2022/02/19 02:18:32;;;;;;;1.80;1.35;;;24.00;40.60;;;;;;6112461;28;81579;-63
2022/02/19 02:21:34;;;;;;;3.42;1.30;;;24.00;40.60;;;;;;6115175;28;82944;-63
2022/02/19 02:24:35;;;;;;;1.85;1.60;;;24.00;40.60;;;;;;6127593;28;80702;-64
2022/02/19 02:27:37;;;;;;;1.52;1.30;;;24.00;40.40;;;;;;6110771;28;82999;-63
2022/02/19 02:30:37;;;;;;;2.42;1.40;;;23.90;40.30;;;;;;6118833;28;83046;-64
2022/02/19 02:33:46;;;;;;;1.50;1.10;;;23.90;40.30;;;;;;6108029;28;82887;-65
2022/02/19 02:36:49;;;;;;;2.17;1.27;;;24.00;40.30;;;;;;6111286;28;81040;-64
2022/02/19 02:39:51;;;;;;;1.77;1.17;;;23.90;40.00;;;;;;6102442;28;82768;-63
2022/02/19 02:42:54;;;;;;;1.05;0.98;;;23.90;39.70;;;;;;6098529;28;83149;-64
2022/02/19 02:45:54;;;;;;;2.55;1.27;;;24.00;39.50;;;;;;6108530;28;83248;-65
2022/02/19 02:48:55;;;;;;;1.80;1.23;;;23.90;39.20;;;;;;6091795;28;82846;-64
2022/02/19 02:51:57;;;;;;;2.17;1.30;;;23.90;39.00;;;;;;6124466;28;83006;-64
2022/02/19 02:54:57;;;;;;;1.10;1.00;;;23.90;39.00;;;;;;6107604;28;80441;-63
2022/02/19 02:58:01;;;;;;;1.38;1.20;;;23.90;38.90;;;;;;6094549;28;83256;-64
2022/02/19 03:01:02;;;;;;;2.03;1.20;;;23.90;38.60;;;;;;6112846;28;80212;-64
2022/02/19 03:04:03;;;;;;;1.20;1.10;;;23.90;38.60;;;;;;6121144;28;83266;-65
2022/02/19 03:07:03;;;;;;;1.75;1.33;;;23.90;38.50;;;;;;6109598;28;83201;-64
2022/02/19 03:10:04;;;;;;;1.48;1.27;;;23.90;38.50;;;;;;6099923;28;80175;-65
2022/02/19 03:13:06;;;;;;;1.33;1.10;;;23.90;38.50;;;;;;6091725;28;83760;-65
2022/02/19 03:16:06;;;;;;;2.45;1.58;;;23.90;38.50;;;;;;6100576;28;80320;-65
2022/02/19 03:19:07;;;;;;;2.03;1.63;;;23.90;38.40;;;;;;6113331;28;81402;-66
2022/02/19 03:22:10;;;;;;;1.52;1.25;;;23.90;38.60;;;;;;6098033;28;83290;-66
2022/02/19 03:25:10;;;;;;;2.45;1.48;;;23.90;38.60;;;;;;6114760;28;80881;-66
2022/02/19 03:28:11;;;;;;;1.23;1.10;;;23.90;39.10;;;;;;6125242;28;82134;-66
2022/02/19 03:31:12;;;;;;;1.75;1.30;;;24.00;38.80;;;;;;6113796;28;81348;-65
2022/02/19 03:34:24;;;;;;;1.20;1.10;;;23.90;39.00;;;;;;6111087;28;82629;-65
2022/02/19 03:37:24;;;;;;;1.30;1.20;;;23.90;39.80;;;;;;6119746;28;83215;-66
2022/02/19 03:40:29;;;;;;;1.77;1.30;;;24.00;38.70;;;;;;6133790;28;82231;-65
2022/02/19 03:43:30;;;;;;;1.67;1.25;;;24.00;38.70;;;;;;6112549;28;80171;-65
2022/02/19 03:46:31;;;;;;;1.95;1.30;;;23.90;38.80;;;;;;6108508;28;81734;-65
2022/02/19 03:49:47;;;;;;;1.70;1.10;;;23.90;38.60;;;;;;6128853;28;82165;-64
2022/02/19 03:52:48;;;;;;;3.15;1.40;;;24.00;38.40;;;;;;6117086;28;83303;-65
2022/02/19 03:56:08;;;;;;;1.92;1.20;;;23.90;38.30;;;;;;6110810;28;81229;-64
2022/02/19 03:59:12;;;;;;;1.17;1.08;;;24.00;38.30;;;;;;6105593;28;83191;-64
2022/02/19 04:02:13;;;;;;;2.42;1.10;;;24.00;38.50;;;;;;6118605;28;82847;-65
2022/02/19 04:05:14;;;;;;;1.27;1.17;;;24.00;38.70;;;;;;6108465;28;83708;-65
2022/02/19 04:08:16;;;;;;;1.30;1.20;;;23.90;38.60;;;;;;6110100;28;82658;-64
2022/02/19 04:11:18;;;;;;;1.45;1.13;;;23.90;38.40;;;;;;6096391;28;82890;-64
2022/02/19 04:14:20;;;;;;;1.38;1.27;;;23.90;38.50;;;;;;6092385;28;83183;-64
2022/02/19 04:17:46;;;;;;;;;;;23.90;38.20;;;;;;6098316;28;81382;-64
2022/02/19 04:20:49;;;;;;;1.50;1.00;;;23.90;37.60;;;;;;6101898;28;80484;-64
2022/02/19 04:23:50;;;;;;;2.05;1.30;;;23.90;37.50;;;;;;6127671;28;80089;-64
2022/02/19 04:26:52;;;;;;;1.00;0.93;;;24.00;37.40;;;;;;6100226;28;81420;-63
2022/02/19 04:29:53;;;;;;;1.58;0.93;;;24.00;37.20;;;;;;6095281;28;80315;-63
2022/02/19 04:32:56;;;;;;;2.05;1.52;;;24.00;38.20;;;;;;6107745;28;83174;-63
2022/02/19 04:35:57;;;;;;;1.10;1.00;;;24.00;37.90;;;;;;6130545;28;82397;-63
2022/02/19 04:38:58;;;;;;;1.30;0.95;;;24.00;39.90;;;;;;6120010;28;82165;-63
2022/02/19 04:42:01;;;;;;;1.92;1.40;;;24.00;37.10;;;;;;6114612;28;82293;-63
2022/02/19 04:45:02;;;;;;;3.05;1.13;;;24.00;37.00;;;;;;6118594;28;82712;-63
2022/02/19 04:48:09;;;;;;;0.90;0.90;;;24.10;36.90;;;;;;6127877;28;86069;-64
2022/02/19 04:51:09;;;;;;;2.10;1.38;;;24.10;36.90;;;;;;6116278;28;83923;-64
2022/02/19 04:54:11;;;;;;;1.42;0.93;;;24.10;36.50;;;;;;6105974;28;82586;-63
2022/02/19 04:57:12;;;;;;;1.42;1.20;;;24.10;36.20;;;;;;6112150;28;82619;-62
2022/02/19 05:00:14;;;;;;;2.05;1.20;;;24.10;35.90;;;;;;6097068;28;81959;-63
2022/02/19 05:03:37;;;;;;;2.22;1.10;;;24.10;35.70;;;;;;6104505;28;80403;-63
2022/02/19 05:06:53;;;;;;;1.00;0.90;;;24.10;35.70;;;;;;6104982;28;88065;-62
2022/02/19 05:09:54;;;;;;;1.02;1.00;;;24.10;35.70;;;;;;6116453;28;80604;-63
2022/02/19 05:13:00;;;;;;;1.40;1.00;;;24.10;35.50;;;;;;6118931;28;81965;-62
2022/02/19 05:16:01;;;;;;;3.45;1.08;;;24.10;35.40;;;;;;6107623;28;82229;-63
2022/02/19 05:19:11;;;;;;;2.35;0.90;;;24.10;34.90;;;;;;6104742;28;82345;-63
2022/02/19 05:22:13;;;;;;;2.60;1.00;;;24.20;35.00;;;;;;6103468;28;80629;-62
2022/02/19 05:25:18;;;;;;;0.97;0.87;;;24.20;34.90;;;;;;6096525;28;81663;-62
2022/02/19 05:28:19;;;;;;;1.30;1.02;;;24.20;35.80;;;;;;6113532;28;82877;-64
2022/02/19 05:31:22;;;;;;;1.10;1.00;;;24.10;36.20;;;;;;6104720;28;82524;-63
2022/02/19 05:34:33;;;;;;;1.05;0.95;;;24.20;36.70;;;;;;6111905;28;82531;-64
2022/02/19 05:37:38;;;;;;;4.57;1.30;;;23.90;38.60;;;;;;6100498;28;83496;-63
2022/02/19 05:40:39;;;;;;;3.85;1.05;;;23.70;40.20;;;;;;6110109;28;82249;-63
2022/02/19 05:43:43;;;;;;;6.82;1.80;;;23.50;40.70;;;;;;6110022;28;81251;-62
2022/02/19 05:46:51;;;;;;;1.50;1.13;;;23.60;41.30;;;;;;6107062;28;83374;-62
2022/02/19 05:49:55;;;;;;;3.45;1.25;;;23.50;42.00;;;;;;6104835;28;81483;-61
2022/02/19 05:53:13;;;;;;;2.53;1.25;;;23.50;42.70;;;;;;6094819;28;82622;-62
2022/02/19 05:56:18;;;;;;;2.28;0.82;;;23.40;43.00;;;;;;6124873;28;82459;-61
2022/02/19 05:59:19;;;;;;;1.38;0.90;;;23.40;43.60;;;;;;6126507;28;83132;-61
2022/02/19 06:02:19;;;;;;;1.85;1.10;;;23.40;43.50;;;;;;6110847;28;81425;-62
2022/02/19 06:05:20;;;;;;;4.03;1.35;;;23.40;44.40;;;;;;6125793;28;82943;-61
2022/02/19 06:08:22;;;;;;;3.03;1.20;;;23.30;43.20;;;;;;6117310;28;81959;-63
2022/02/19 06:11:23;;;;;;;4.85;1.33;;;23.30;44.10;;;;;;6104184;28;82301;-59
2022/02/19 06:14:42;;;;;;;7.35;1.40;;;23.30;44.10;;;;;;6116596;28;80275;-61
2022/02/19 06:17:45;;;;;;;3.55;1.05;;;23.20;43.90;;;;;;6115851;28;83259;-61
2022/02/19 06:20:45;;;;;;;1.85;1.00;;;23.20;43.90;;;;;;6103340;28;80290;-61
2022/02/19 06:23:55;;;;;;;2.08;1.17;;;23.30;44.80;;;;;;6093926;28;82921;-61
2022/02/19 06:26:59;;;;;;;2.30;1.23;;;23.40;44.60;;;;;;6078533;28;80929;-63
2022/02/19 06:30:26;;;;;;;;;;;23.30;44.50;;;;;;6093370;28;80877;-61
2022/02/19 06:33:35;;;;;;;2.20;1.60;;;23.30;44.30;;;;;;6115638;28;81168;-62
2022/02/19 06:36:39;;;;;;;3.47;1.02;;;23.40;44.30;;;;;;6103970;28;80127;-62
2022/02/19 06:39:40;;;;;;;3.65;1.40;;;23.40;44.10;;;;;;6106077;28;81743;-62
2022/02/19 06:42:40;;;;;;;4.90;1.30;;;23.40;44.30;;;;;;6106949;28;80430;-63
2022/02/19 06:45:53;;;;;;;1.95;1.23;;;23.40;44.00;;;;;;6115941;28;86800;-63
2022/02/19 06:48:57;;;;;;;3.92;1.23;;;23.40;43.70;;;;;;6125738;28;83406;-62
2022/02/19 06:52:04;;;;;;;1.70;1.27;;;23.40;43.90;;;;;;6108742;28;82873;-62
2022/02/19 06:55:05;;;;;;;4.38;2.13;;;23.50;43.80;;;;;;6099918;28;84103;-64
2022/02/19 06:58:06;;;;;;;4.60;1.90;;;23.50;44.10;;;;;;6105754;28;82337;-62
2022/02/19 07:01:13;;;;;;;3.30;1.90;;;23.50;44.10;;;;;;6097103;28;82127;-63
2022/02/19 07:04:15;;;;;;;2.72;1.90;;;23.50;43.90;;;;;;6108627;28;80478;-62
2022/02/19 07:07:27;;;;;;;3.42;1.92;;;23.50;43.70;;;;;;6109243;28;80105;-59
2022/02/19 07:10:28;;;;;;;5.10;1.65;;;23.50;43.00;;;;;;6107265;28;83415;-61
2022/02/19 07:13:31;;;;;;;1.70;1.55;;;23.50;43.40;;;;;;6114590;28;83411;-63
2022/02/19 07:16:31;;;;;;;5.82;1.80;;;23.50;43.30;;;;;;6115401;28;82435;-64
2022/02/19 07:19:32;;;;;;;3.65;1.50;;;23.60;43.30;;;;;;6102515;28;81856;-63
2022/02/19 07:22:32;;;;;;;7.40;2.08;;;23.60;43.60;;;;;;6090174;28;83183;-63
2022/02/19 07:25:34;;;;;;;3.58;1.75;;;23.60;43.10;;;;;;6104935;28;82707;-68
2022/02/19 07:28:34;;;;;;;7.57;2.38;;;23.70;43.50;;;;;;6122443;28;81826;-63
2022/02/19 07:31:35;;;;;;;5.15;2.03;;;23.60;43.70;;;;;;6103683;28;82823;-61
2022/02/19 07:34:36;;;;;;;5.03;2.00;;;23.70;43.00;;;;;;6105412;28;81530;-60
2022/02/19 07:37:37;;;;;;;4.53;1.70;;;23.80;43.70;;;;;;6108798;28;80773;-61
2022/02/19 07:40:37;;;;;;;5.90;1.50;;;23.80;43.30;;;;;;6114280;28;82789;-59
2022/02/19 07:43:38;;;;;;;3.47;2.00;;;23.80;43.40;;;;;;6125627;28;83240;-64
2022/02/19 07:46:45;;;;;;;3.70;1.58;;;23.80;42.90;;;;;;6101938;28;81389;-63
2022/02/19 08:00:20;;;;;;;4.68;1.65;;;23.70;42.60;;;;;;6100456;28;82798;-65
2022/02/19 08:03:26;;;;;;;4.20;1.60;;;23.70;41.30;;;;;;6081932;28;83424;-64
2022/02/19 08:06:34;;;;;;;7.43;1.95;;;23.80;42.30;;;;;;6104013;28;83144;-65
2022/02/19 08:09:34;;;;;;;6.68;2.00;;;23.80;42.60;;;;;;6108842;28;83620;-64
2022/02/19 08:12:35;;;;;;;9.02;1.60;;;23.90;43.00;;;;;;6107133;28;83376;-65
2022/02/19 08:15:35;;;;;;;2.33;1.40;;;24.00;43.70;;;;;;6117515;28;80818;-63
2022/02/19 08:18:36;;;;;;;3.28;1.52;;;24.10;42.80;;;;;;6108914;28;80760;-62
2022/02/19 08:21:37;;;;;;;5.65;1.85;;;24.10;40.40;;;;;;6104113;28;80690;-65
2022/02/19 08:24:37;;;;;;;4.43;1.83;;;24.00;40.00;;;;;;6101367;28;81586;-62
2022/02/19 08:27:39;;;;;;;5.88;1.70;;;24.10;40.10;;;;;;6107901;28;81473;-62
2022/02/19 08:30:40;;;;;;;3.58;1.55;;;24.20;40.20;;;;;;6111278;28;80546;-63
2022/02/19 08:33:40;;;;;;;3.20;1.85;;;24.30;40.30;;;;;;6106106;28;81412;-62
2022/02/19 08:36:41;;;;;;;3.10;1.25;;;24.30;40.30;;;;;;6108703;28;80570;-62
2022/02/19 08:39:41;;;;;;;2.75;1.38;;;24.30;40.50;;;;;;6110492;28;80897;-63
2022/02/19 08:42:42;;;;;;;6.07;1.80;;;24.40;41.10;;;;;;6119161;28;80380;-60
2022/02/19 08:45:43;;;;;;;2.88;1.52;;;24.40;41.10;;;;;;6112821;28;81400;-62
2022/02/19 08:48:44;;;;;;;4.65;1.80;;;24.40;40.50;;;;;;6105527;28;80760;-62
2022/02/19 08:51:44;;;;;;;4.72;1.80;;;24.30;40.90;;;;;;6127452;28;81303;-62
2022/02/19 08:54:45;;;;;;;6.72;2.50;;;24.30;40.70;;;;;;6119261;28;80309;-63
2022/02/19 08:57:45;;;;;;;7.80;2.13;;;24.20;40.30;;;;;;6117619;28;80367;-62
2022/02/19 09:00:46;;;;;;;2.72;1.70;;;24.10;40.20;;;;;;6129047;28;81729;-64
2022/02/19 09:03:47;;;;;;;5.00;1.88;;;24.10;40.20;;;;;;6102622;28;81828;-63
2022/02/19 09:06:48;;;;;;;5.25;1.60;;;24.20;39.90;;;;;;6098030;28;81602;-63
2022/02/19 09:09:48;;;;;;;4.32;1.55;;;24.30;39.60;;;;;;6093032;28;80465;-63
2022/02/19 09:12:49;;;;;;;4.70;1.52;;;24.30;39.80;;;;;;6108414;28;80430;-63
2022/02/19 09:15:50;;;;;;;2.35;1.33;;;24.40;39.10;;;;;;6121274;28;80359;-63
2022/02/19 09:18:50;;;;;;;5.38;1.75;;;24.40;39.60;;;;;;6099477;28;80640;-63
2022/02/19 09:21:51;;;;;;;6.20;2.13;;;24.60;39.40;;;;;;6106702;28;81623;-62
2022/02/19 09:24:52;;;;;;;3.65;1.48;;;24.60;38.90;;;;;;6126243;28;80424;-63
2022/02/19 09:27:52;;;;;;;6.32;2.03;;;24.70;39.00;;;;;;6118565;28;85881;-63
2022/02/19 09:30:53;;;;;;;3.80;1.52;;;24.70;38.50;;;;;;6110014;28;80204;-63
2022/02/19 09:33:54;;;;;;;4.93;2.08;;;24.70;37.90;;;;;;6123238;28;81653;-63
2022/02/19 09:36:54;;;;;;;3.50;1.58;;;24.90;37.80;;;;;;6112179;28;80539;-63
2022/02/19 09:39:55;;;;;;;3.22;1.52;;;24.90;37.20;;;;;;6098222;28;80595;-62
2022/02/19 09:42:56;;;;;;;5.53;2.08;;;25.10;37.70;;;;;;6097296;28;81399;-63
2022/02/19 09:45:56;;;;;;;4.40;1.52;;;25.10;37.40;;;;;;6114533;28;80583;-63
2022/02/19 09:48:57;;;;;;;5.90;1.70;;;25.00;37.00;;;;;;6131683;28;86638;-63
2022/02/19 09:51:59;;;;;;;2.15;1.42;;;25.00;36.70;;;;;;6114143;28;83116;-63
2022/02/19 09:54:59;;;;;;;5.22;1.50;;;25.00;36.50;;;;;;6118525;28;80312;-63
2022/02/19 09:58:00;;;;;;;4.05;1.90;;;25.00;36.20;;;;;;6125316;28;80861;-63
2022/02/19 10:01:01;;;;;;;3.75;1.83;;;25.10;36.20;;;;;;6113712;28;84158;-63
2022/02/19 10:04:02;;;;;;;4.28;1.90;;;25.10;35.80;;;;;;6119910;28;80118;-64
2022/02/19 10:07:03;;;;;;;5.97;1.80;;;25.20;35.80;;;;;;6118671;28;80733;-63
2022/02/19 10:10:03;;;;;;;3.50;1.50;;;25.10;36.30;;;;;;6101197;28;80737;-63
2022/02/19 10:13:04;;;;;;;4.85;2.20;;;25.10;36.20;;;;;;6099065;28;80313;-65
2022/02/19 10:16:05;;;;;;;4.68;1.50;;;25.10;36.10;;;;;;6089756;28;80584;-64
2022/02/19 10:19:05;;;;;;;3.33;1.50;;;25.10;35.60;;;;;;6110771;28;80237;-63
2022/02/19 10:22:06;;;;;;;4.35;2.13;;;25.00;35.70;;;;;;6096623;28;83412;-64
2022/02/19 10:25:06;;;;;;;2.35;1.38;;;24.90;36.30;;;;;;6100944;28;80909;-64
2022/02/19 10:28:10;;;;;;;4.38;1.98;;;24.70;36.40;;;;;;6093934;28;83602;-63
2022/02/19 10:31:11;;;;;;;4.07;1.92;;;24.60;36.60;;;;;;6093300;28;81440;-63
2022/02/19 10:34:13;;;;;;;3.83;1.92;;;24.40;37.20;;;;;;6098487;28;81940;-64
2022/02/19 10:37:13;;;;;;;3.85;1.58;;;24.40;37.80;;;;;;6097720;28;80121;-65
2022/02/19 10:40:14;;;;;;;3.50;1.55;;;24.30;37.50;;;;;;6094860;28;80383;-63
2022/02/19 10:43:17;;;;;;;2.15;1.40;;;24.20;37.20;;;;;;6099714;28;80795;-63
2022/02/19 10:46:18;;;;;;;5.10;1.73;;;24.10;38.10;;;;;;6102961;28;81128;-62
2022/02/19 10:49:18;;;;;;;3.72;1.40;;;24.10;38.30;;;;;;6105979;28;80974;-63
2022/02/19 10:52:19;;;;;;;3.95;2.22;;;24.00;38.50;;;;;;6104814;28;81358;-63
2022/02/19 10:55:23;;;;;;;5.70;1.65;;;24.10;38.40;;;;;;6097361;28;81710;-64
2022/02/19 10:58:24;;;;;;;5.05;1.95;;;24.10;37.60;;;;;;6095761;28;82074;-63
2022/02/19 11:01:24;;;;;;;2.92;1.50;;;24.30;36.80;;;;;;6107624;28;80832;-65
2022/02/19 11:04:25;;;;;;;2.85;1.67;;;24.40;36.00;;;;;;6090837;28;82617;-65
2022/02/19 11:07:25;;;;;;;5.80;1.70;;;24.50;35.40;;;;;;6106411;28;80433;-64
2022/02/19 11:10:26;;;;;;;4.00;1.42;;;24.70;34.50;;;;;;6105580;28;80325;-62
2022/02/19 11:13:27;;;;;;;8.52;1.98;;;24.80;34.30;;;;;;6103732;28;87050;-60
2022/02/19 11:16:27;;;;;;;4.25;1.95;;;24.90;33.40;;;;;;6102940;28;80603;-64
2022/02/19 11:19:28;;;;;;;4.80;1.70;;;24.90;33.00;;;;;;6113603;28;80317;-62
2022/02/19 11:22:29;;;;;;;5.20;1.58;;;24.90;32.90;;;;;;6110808;28;81070;-62
2022/02/19 11:25:30;;;;;;;4.35;1.85;;;25.00;33.40;;;;;;6126349;28;80248;-68
2022/02/19 11:28:30;;;;;;;4.80;2.30;;;25.00;32.80;;;;;;6125687;28;81448;-63
2022/02/19 11:31:31;;;;;;;3.92;2.00;;;25.00;32.70;;;;;;6123647;28;80321;-64
2022/02/19 11:34:32;;;;;;;3.88;1.90;;;24.90;32.70;;;;;;6111711;28;80565;-63
2022/02/19 11:37:32;;;;;;;10.15;1.80;;;24.90;33.10;;;;;;6126628;28;80403;-62
2022/02/19 11:40:33;;;;;;;3.22;1.63;;;24.90;32.60;;;;;;6100785;28;82340;-63
2022/02/19 11:43:33;;;;;;;3.95;1.63;;;24.90;32.70;;;;;;6129652;28;81780;-63
2022/02/19 11:46:34;;;;;;;3.50;1.45;;;24.90;32.70;;;;;;6131938;28;80973;-63
2022/02/19 11:49:35;;;;;;;3.03;1.75;;;24.90;33.00;;;;;;6110226;28;80071;-63
2022/02/19 11:52:36;;;;;;;6.55;2.20;;;24.90;33.00;;;;;;6125850;28;81840;-64
2022/02/19 11:55:36;;;;;;;6.72;1.80;;;24.80;32.80;;;;;;6110825;28;80432;-63
2022/02/19 11:58:37;;;;;;;6.03;1.80;;;24.80;32.70;;;;;;6108391;28;80263;-63
2022/02/19 12:01:37;;;;;;;5.05;2.42;;;24.80;33.30;;;;;;6115024;28;80691;-61
2022/02/19 12:04:38;;;;;;;3.85;1.80;;;24.80;33.50;;;;;;6112933;28;80706;-60
2022/02/19 12:07:40;;;;;;;5.95;2.10;;;24.90;33.60;;;;;;6115444;28;83243;-60
2022/02/19 12:10:40;;;;;;;2.65;1.92;;;24.80;34.80;;;;;;6102291;28;82346;-60
2022/02/19 12:13:41;;;;;;;4.25;1.80;;;24.50;36.40;;;;;;6102401;28;80703;-59
2022/02/19 12:16:41;;;;;;;2.88;1.70;;;24.30;37.40;;;;;;6106655;28;80882;-60
2022/02/19 12:19:42;;;;;;;8.05;2.00;;;24.20;38.30;;;;;;6108536;28;80796;-59
2022/02/19 12:22:42;;;;;;;2.92;1.63;;;24.20;38.80;;;;;;6107583;28;80248;-59
2022/02/19 12:25:43;;;;;;;5.35;1.70;;;24.20;39.00;;;;;;6104768;28;80490;-61
2022/02/19 12:28:44;;;;;;;5.53;1.70;;;24.10;38.90;;;;;;6103860;28;81010;-60
2022/02/19 12:31:45;;;;;;;3.03;1.55;;;24.10;39.30;;;;;;6113715;28;80507;-61
2022/02/19 12:34:45;;;;;;;6.75;1.75;;;24.10;39.90;;;;;;6113531;28;81029;-62
2022/02/19 12:37:46;;;;;;;4.50;2.10;;;24.00;39.90;;;;;;6127995;28;80589;-63
2022/02/19 12:40:46;;;;;;;4.35;1.55;;;24.10;40.10;;;;;;6090621;28;81512;-62
2022/02/19 12:43:47;;;;;;;4.13;1.92;;;24.20;40.00;;;;;;6113589;28;83122;-62
2022/02/19 12:46:47;;;;;;;5.05;1.67;;;24.30;39.80;;;;;;6111439;28;80370;-63
2022/02/19 12:49:48;;;;;;;4.05;1.75;;;24.50;40.40;;;;;;6105485;28;80969;-63
2022/02/19 12:52:49;;;;;;;5.47;1.80;;;24.60;39.60;;;;;;6111759;28;80131;-62
2022/02/19 12:55:50;;;;;;;4.50;1.73;;;24.40;40.00;;;;;;6108751;28;84537;-62
2022/02/19 12:58:51;;;;;;;6.82;2.42;;;24.30;40.60;;;;;;6110192;28;81853;-61
2022/02/19 13:01:51;;;;;;;8.55;2.30;;;24.20;40.50;;;;;;6100298;28;81555;-63
2022/02/19 13:04:58;;;;;;;5.50;2.10;;;24.30;40.80;;;;;;6096902;28;80524;-62
2022/02/19 13:07:58;;;;;;;3.85;2.20;;;24.30;40.50;;;;;;6109610;28;80664;-63
2022/02/19 13:10:59;;;;;;;4.22;2.10;;;24.40;40.90;;;;;;6095997;28;82963;-65
2022/02/19 13:14:00;;;;;;;8.93;2.55;;;24.40;42.00;;;;;;6108550;28;81013;-64
2022/02/19 13:17:00;;;;;;;3.67;1.98;;;24.30;41.30;;;;;;6106697;28;81518;-65
2022/02/19 13:20:01;;;;;;;3.08;1.63;;;24.30;42.00;;;;;;6104156;28;80701;-65
2022/02/19 13:23:01;;;;;;;2.63;1.67;;;24.20;41.50;;;;;;6106825;28;80106;-66
2022/02/19 13:26:02;;;;;;;3.92;1.95;;;24.20;41.00;;;;;;6095700;28;81414;-65
2022/02/19 13:29:02;;;;;;;8.73;1.98;;;24.10;40.30;;;;;;6110761;28;80773;-65
2022/02/19 13:32:05;;;;;;;6.55;2.50;;;24.00;40.50;;;;;;6112304;28;80522;-65
2022/02/19 13:35:07;;;;;;;3.85;1.80;;;24.00;40.80;;;;;;6098669;28;80472;-64
2022/02/19 13:38:07;;;;;;;4.38;1.80;;;24.00;40.20;;;;;;6098289;28;81538;-64
2022/02/19 13:41:08;;;;;;;6.57;2.33;;;23.90;39.50;;;;;;6100260;28;81978;-65
2022/02/19 13:44:08;;;;;;;3.53;2.00;;;23.90;39.60;;;;;;6101602;28;80526;-63
2022/02/19 13:47:09;;;;;;;3.13;1.58;;;23.80;38.60;;;;;;6105225;28;80619;-64
2022/02/19 13:50:09;;;;;;;4.20;2.40;;;23.80;38.30;;;;;;6105052;28;81833;-65
2022/02/19 13:53:10;;;;;;;3.45;1.77;;;23.80;38.70;;;;;;6105117;28;80229;-64
2022/02/19 13:56:11;;;;;;;2.80;1.60;;;23.80;39.00;;;;;;6107553;28;80839;-64
2022/02/19 13:59:13;;;;;;;3.63;1.60;;;23.70;39.20;;;;;;6103898;28;82082;-64
2022/02/19 14:02:14;;;;;;;3.90;1.95;;;23.80;39.50;;;;;;6101018;28;80536;-65
2022/02/19 14:05:14;;;;;;;3.85;1.88;;;23.80;39.70;;;;;;6101721;28;81370;-63
2022/02/19 14:08:15;;;;;;;4.63;2.00;;;23.80;39.90;;;;;;6106250;28;80121;-63
2022/02/19 14:11:15;;;;;;;3.08;1.73;;;23.80;39.90;;;;;;6102734;28;80576;-62
2022/02/19 14:14:16;;;;;;;3.53;1.65;;;23.80;39.50;;;;;;6103612;28;81705;-63
2022/02/19 14:17:19;;;;;;;2.53;1.63;;;23.80;40.10;;;;;;6107340;28;81528;-62
2022/02/19 14:20:20;;;;;;;4.00;2.08;;;23.80;40.90;;;;;;6112603;28;80967;-64
2022/02/19 14:23:21;;;;;;;3.30;2.05;;;23.80;41.00;;;;;;6106312;28;81704;-64
2022/02/19 14:26:21;;;;;;;5.03;2.13;;;23.80;40.60;;;;;;6104682;28;80892;-63
2022/02/19 14:29:22;;;;;;;3.55;2.05;;;23.80;40.80;;;;;;6103742;28;82885;-63
2022/02/19 14:32:22;;;;;;;3.38;1.83;;;23.80;40.60;;;;;;6108838;28;81639;-64
2022/02/19 14:35:23;;;;;;;3.33;1.67;;;23.80;40.60;;;;;;6108058;28;80516;-64
2022/02/19 14:38:24;;;;;;;5.75;2.17;;;23.90;40.80;;;;;;6126865;28;81358;-64
2022/02/19 14:41:24;;;;;;;3.45;1.77;;;23.80;40.80;;;;;;6113435;28;80661;-63
2022/02/19 14:44:25;;;;;;;5.85;2.00;;;23.80;41.00;;;;;;6105498;28;80450;-67
2022/02/19 14:47:25;;;;;;;29.27;2.78;;;23.80;40.70;;;;;;6106083;28;81242;-64
2022/02/19 14:50:26;;;;;;;5.85;2.15;;;23.90;41.60;;;;;;6100901;28;80638;-64
2022/02/19 14:53:27;;;;;;;2.80;2.00;;;23.90;42.00;;;;;;6102019;28;80716;-64
2022/02/19 14:56:27;;;;;;;3.13;2.10;;;23.90;42.60;;;;;;6104025;28;80719;-63
2022/02/19 14:59:29;;;;;;;5.13;2.30;;;23.80;42.60;;;;;;6104723;28;80536;-64
2022/02/19 15:02:29;;;;;;;7.25;2.45;;;23.80;42.90;;;;;;6095164;28;81790;-65
2022/02/19 15:05:30;;;;;;;6.35;2.10;;;23.80;43.00;;;;;;6099987;28;80555;-65
2022/02/19 15:08:31;;;;;;;5.47;2.08;;;23.80;43.60;;;;;;6092586;28;80849;-63
2022/02/19 15:11:31;;;;;;;3.03;2.00;;;23.90;43.00;;;;;;6095481;28;80224;-63
2022/02/19 15:14:32;;;;;;;3.15;1.80;;;23.90;42.90;;;;;;6095958;28;81302;-65
2022/02/19 15:17:33;;;;;;;6.57;2.33;;;23.90;43.00;;;;;;6079035;28;80916;-64
2022/02/19 15:20:33;;;;;;;2.95;1.77;;;24.00;43.30;;;;;;6091066;28;80863;-64
2022/02/19 15:23:34;;;;;;;3.58;2.03;;;24.00;43.40;;;;;;6092371;28;80407;-64
2022/02/19 15:26:34;;;;;;;6.70;2.25;;;24.10;43.30;;;;;;6098193;28;81464;-63
2022/02/19 15:29:35;;;;;;;4.80;2.55;;;24.10;43.50;;;;;;6097409;28;80316;-64
2022/02/19 15:32:35;;;;;;;3.47;1.90;;;24.10;43.00;;;;;;6103942;28;80331;-65
2022/02/19 15:35:36;;;;;;;4.38;2.20;;;24.20;43.20;;;;;;6096403;28;81325;-64
2022/02/19 15:38:38;;;;;;;3.15;2.33;;;24.30;42.80;;;;;;6098219;28;81626;-62
2022/02/19 15:41:38;;;;;;;4.43;2.33;;;24.20;43.00;;;;;;6103902;28;80471;-64
2022/02/19 15:44:39;;;;;;;3.28;1.88;;;24.20;42.80;;;;;;6123824;28;81688;-62
2022/02/19 15:47:40;;;;;;;5.82;2.00;;;24.10;42.90;;;;;;6128443;28;80559;-63
2022/02/19 15:50:40;;;;;;;4.63;2.20;;;24.00;43.20;;;;;;6113051;28;80517;-64
2022/02/19 15:53:41;;;;;;;6.15;2.58;;;23.90;43.30;;;;;;6099418;28;80714;-64
2022/02/19 15:56:42;;;;;;;4.32;2.20;;;23.90;43.40;;;;;;6127298;28;80488;-65
2022/02/19 15:59:42;;;;;;;7.30;2.33;;;23.80;43.50;;;;;;6126009;28;81952;-66